createdAt,value
2018-08-20T00:01:45.932Z,20.40
2018-08-20T00:04:15.585Z,20.30
2018-08-20T00:06:59.445Z,20.30
2018-08-20T00:09:35.975Z,20.30
2018-08-20T00:12:06.251Z,20.30
2018-08-20T00:14:35.614Z,20.20
2018-08-20T00:17:04.812Z,20.20
2018-08-20T00:19:34.039Z,20.10
2018-08-20T00:22:03.331Z,20.10
2018-08-20T00:24:33.492Z,20.10
2018-08-20T00:27:03.436Z,20.20
2018-08-20T00:29:35.746Z,20.10
2018-08-20T00:32:05.455Z,20.00
2018-08-20T00:34:34.846Z,20.00
2018-08-20T00:37:04.250Z,20.00
2018-08-20T00:39:33.329Z,20.00
2018-08-20T00:42:02.460Z,20.00
2018-08-20T00:44:31.807Z,19.90
2018-08-20T00:47:01.222Z,19.80
2018-08-20T00:49:30.306Z,19.90
2018-08-20T00:51:59.354Z,19.80
2018-08-20T00:54:28.399Z,19.80
2018-08-20T00:56:57.703Z,19.80
2018-08-20T00:59:27.059Z,19.70
2018-08-20T01:01:56.294Z,19.70
2018-08-20T01:04:25.685Z,19.70
2018-08-20T01:06:54.726Z,19.80
2018-08-20T01:09:24.057Z,19.70
2018-08-20T01:11:53.516Z,19.70
2018-08-20T01:14:22.841Z,19.60
2018-08-20T01:16:52.238Z,19.60
2018-08-20T01:19:21.595Z,19.60
2018-08-20T01:21:50.735Z,19.70
2018-08-20T01:24:20.137Z,19.60
2018-08-20T01:26:49.489Z,19.60
2018-08-20T01:29:18.805Z,19.60
2018-08-20T01:31:48.132Z,19.50
2018-08-20T01:34:17.190Z,19.60
2018-08-20T01:36:46.415Z,19.50
2018-08-20T01:39:15.535Z,19.50
2018-08-20T01:41:44.995Z,19.40
2018-08-20T01:44:15.267Z,19.40
2018-08-20T01:46:44.416Z,19.40
2018-08-20T01:49:13.488Z,19.40
2018-08-20T01:51:42.645Z,19.40
2018-08-20T01:54:12.026Z,19.30
2018-08-20T01:56:41.138Z,19.30
2018-08-20T01:59:10.218Z,19.30
2018-08-20T02:01:39.528Z,19.20
2018-08-20T02:04:08.928Z,19.20
2018-08-20T02:06:38.326Z,19.20
2018-08-20T02:09:10.764Z,19.10
2018-08-20T02:11:40.102Z,19.10
2018-08-20T02:14:09.144Z,19.20
2018-08-20T02:16:39.787Z,19.10
2018-08-20T02:19:09.917Z,19.00
2018-08-20T02:21:39.481Z,19.00
2018-08-20T02:24:08.885Z,19.00
2018-08-20T02:26:38.331Z,19.00
2018-08-20T02:29:08.580Z,19.00
2018-08-20T02:31:37.880Z,19.00
2018-08-20T02:34:07.441Z,19.00
2018-08-20T02:36:36.807Z,18.90
2018-08-20T02:39:11.512Z,18.90
2018-08-20T02:41:41.126Z,18.90
2018-08-20T02:44:11.277Z,18.90
2018-08-20T02:46:59.067Z,18.80
2018-08-20T02:49:29.422Z,18.80
2018-08-20T02:51:58.527Z,18.80
2018-08-20T02:54:27.584Z,18.70
2018-08-20T02:56:56.578Z,18.80
2018-08-20T02:59:25.732Z,18.70
2018-08-20T03:01:54.911Z,18.70
2018-08-20T03:04:24.253Z,18.70
2018-08-20T03:06:53.586Z,18.60
2018-08-20T03:09:22.864Z,18.60
2018-08-20T03:11:51.942Z,18.70
2018-08-20T03:14:25.412Z,18.70
2018-08-20T03:16:54.716Z,18.60
2018-08-20T03:19:23.789Z,18.70
2018-08-20T03:21:53.300Z,18.60
2018-08-20T03:24:22.568Z,18.50
2018-08-20T03:26:52.017Z,18.50
2018-08-20T03:29:21.352Z,18.40
2018-08-20T03:31:50.712Z,18.40
2018-08-20T03:34:20.771Z,18.40
2018-08-20T03:36:49.930Z,18.40
2018-08-20T03:39:19.098Z,18.40
2018-08-20T03:41:48.485Z,18.40
2018-08-20T03:44:17.814Z,18.40
2018-08-20T03:46:47.203Z,18.30
2018-08-20T03:49:16.345Z,18.30
2018-08-20T03:51:45.778Z,18.30
2018-08-20T03:54:15.136Z,18.20
2018-08-20T03:56:44.471Z,18.20
2018-08-20T03:59:32.863Z,18.20
2018-08-20T04:02:03.836Z,18.20
2018-08-20T04:04:33.037Z,18.30
2018-08-20T04:07:03.818Z,18.20
2018-08-20T04:09:33.772Z,18.20
2018-08-20T04:12:03.974Z,18.20
2018-08-20T04:14:33.024Z,18.30
2018-08-20T04:17:02.446Z,18.20
2018-08-20T04:19:31.773Z,18.20
2018-08-20T04:22:01.209Z,18.20
2018-08-20T04:24:30.609Z,18.20
2018-08-20T04:27:00.081Z,18.20
2018-08-20T04:29:29.919Z,18.20
2018-08-20T04:31:59.238Z,18.20
2018-08-20T04:34:28.545Z,18.30
2018-08-20T04:37:18.196Z,18.20
2018-08-20T04:39:47.312Z,18.30
2018-08-20T04:42:16.884Z,18.30
2018-08-20T04:44:46.317Z,18.30
2018-08-20T04:47:15.735Z,18.30
2018-08-20T04:49:44.772Z,18.40
2018-08-20T04:52:14.209Z,18.30
2018-08-20T04:54:43.672Z,18.40
2018-08-20T04:57:13.116Z,18.40
2018-08-20T04:59:42.432Z,18.50
2018-08-20T05:02:13.324Z,18.60
2018-08-20T05:04:49.399Z,18.60
2018-08-20T05:07:18.855Z,18.70
2018-08-20T05:09:48.155Z,18.80
2018-08-20T05:12:17.501Z,18.80
2018-08-20T05:14:46.640Z,19.00
2018-08-20T05:17:16.047Z,19.00
2018-08-20T05:19:45.371Z,19.10
2018-08-20T05:22:14.460Z,19.20
2018-08-20T05:24:44.834Z,19.30
2018-08-20T05:27:14.209Z,19.40
2018-08-20T05:29:43.612Z,19.40
2018-08-20T05:32:12.909Z,19.60
2018-08-20T05:34:42.186Z,19.70
2018-08-20T05:37:11.507Z,19.80
2018-08-20T05:39:40.506Z,20.00
2018-08-20T05:42:09.635Z,20.20
2018-08-20T05:44:39.033Z,20.30
2018-08-20T05:47:08.354Z,20.50
2018-08-20T05:49:37.777Z,20.80
2018-08-20T05:52:07.135Z,20.90
2018-08-20T05:54:36.467Z,21.20
2018-08-20T05:57:06.253Z,21.40
2018-08-20T05:59:35.564Z,21.60
2018-08-20T06:02:09.355Z,21.80
2018-08-20T06:04:38.754Z,21.90
2018-08-20T06:07:08.380Z,22.00
2018-08-20T06:09:37.861Z,22.20
2018-08-20T06:12:07.617Z,22.40
2018-08-20T06:14:37.561Z,22.60
2018-08-20T06:17:06.957Z,22.80
2018-08-20T06:19:36.321Z,22.90
2018-08-20T06:22:05.950Z,23.10
2018-08-20T06:24:35.322Z,23.10
2018-08-20T06:27:04.667Z,23.40
2018-08-20T06:29:34.032Z,23.40
2018-08-20T06:32:03.433Z,23.50
2018-08-20T06:34:32.737Z,23.70
2018-08-20T06:37:02.298Z,23.80
2018-08-20T06:39:31.784Z,24.00
2018-08-20T06:42:01.802Z,24.10
2018-08-20T06:44:31.070Z,24.30
2018-08-20T06:47:00.260Z,24.50
2018-08-20T06:49:30.290Z,24.30
2018-08-20T06:51:59.391Z,24.60
2018-08-20T06:54:29.483Z,24.50
2018-08-20T06:56:58.972Z,24.70
2018-08-20T06:59:28.260Z,24.80
2018-08-20T07:01:57.533Z,25.00
2018-08-20T07:04:28.564Z,25.20
2018-08-20T07:06:58.534Z,25.20
2018-08-20T07:09:27.678Z,25.50
2018-08-20T07:11:56.994Z,25.40
2018-08-20T07:14:26.067Z,25.60
2018-08-20T07:16:55.258Z,25.70
2018-08-20T07:19:24.634Z,25.40
2018-08-20T07:21:53.973Z,25.50
2018-08-20T07:24:23.157Z,25.80
2018-08-20T07:26:53.271Z,25.80
2018-08-20T07:29:39.067Z,25.30
2018-08-20T07:32:10.799Z,25.40
2018-08-20T07:34:42.070Z,25.50
2018-08-20T07:37:15.082Z,25.50
2018-08-20T07:39:45.426Z,25.60
2018-08-20T07:42:14.739Z,25.70
2018-08-20T07:44:44.834Z,25.80
2018-08-20T07:47:13.989Z,25.90
2018-08-20T07:49:43.376Z,26.00
2018-08-20T07:52:12.657Z,26.10
2018-08-20T07:54:41.904Z,26.00
2018-08-20T07:57:11.649Z,26.00
2018-08-20T07:59:41.033Z,26.20
2018-08-20T08:02:10.381Z,26.00
2018-08-20T08:04:39.937Z,26.00
2018-08-20T08:07:09.429Z,26.20
2018-08-20T08:09:38.751Z,25.90
2018-08-20T08:12:08.585Z,26.20
2018-08-20T08:14:38.002Z,26.40
2018-08-20T08:17:07.628Z,26.50
2018-08-20T08:19:37.017Z,26.70
2018-08-20T08:22:06.327Z,26.90
2018-08-20T08:24:35.696Z,26.90
2018-08-20T08:27:05.109Z,27.00
2018-08-20T08:29:35.110Z,27.10
2018-08-20T08:32:05.377Z,27.00
2018-08-20T08:34:34.608Z,27.10
2018-08-20T08:37:03.780Z,27.20
2018-08-20T08:39:33.204Z,27.10
2018-08-20T08:42:02.604Z,27.00
2018-08-20T08:44:32.124Z,27.30
2018-08-20T08:47:01.178Z,27.20
2018-08-20T08:49:30.514Z,26.90
2018-08-20T08:51:59.845Z,27.20
2018-08-20T08:54:29.236Z,27.30
2018-08-20T08:56:58.322Z,27.60
2018-08-20T08:59:27.345Z,27.40
2018-08-20T09:01:56.764Z,27.30
2018-08-20T09:04:26.162Z,27.50
2018-08-20T09:06:55.571Z,27.40
2018-08-20T09:09:24.591Z,27.70
2018-08-20T09:11:53.906Z,27.50
2018-08-20T09:14:23.449Z,27.20
2018-08-20T09:16:52.857Z,27.10
2018-08-20T09:19:22.218Z,27.00
2018-08-20T09:21:51.562Z,26.60
2018-08-20T09:24:20.856Z,26.20
2018-08-20T09:26:50.260Z,26.30
2018-08-20T09:29:19.762Z,26.30
2018-08-20T09:31:48.915Z,26.40
2018-08-20T09:34:18.261Z,26.30
2018-08-20T09:36:47.605Z,26.10
2018-08-20T09:39:16.664Z,26.00
2018-08-20T09:41:45.971Z,26.00
2018-08-20T09:44:15.151Z,26.30
2018-08-20T09:46:44.532Z,25.80
2018-08-20T09:49:13.837Z,25.90
2018-08-20T09:51:43.237Z,26.00
2018-08-20T09:54:12.455Z,26.10
2018-08-20T09:56:41.535Z,26.00
2018-08-20T09:59:10.671Z,26.00
2018-08-20T10:01:40.280Z,26.00
2018-08-20T10:04:09.828Z,25.90
2018-08-20T10:06:39.358Z,26.00
2018-08-20T10:09:10.607Z,25.80
2018-08-20T10:11:40.061Z,25.70
2018-08-20T10:14:09.320Z,25.70
2018-08-20T10:16:38.459Z,25.60
2018-08-20T10:19:07.510Z,25.60
2018-08-20T10:21:36.980Z,25.60
2018-08-20T10:24:06.647Z,25.60
2018-08-20T10:26:36.056Z,25.70
2018-08-20T10:29:06.041Z,25.60
2018-08-20T10:31:35.559Z,25.80
2018-08-20T10:34:07.454Z,25.90
2018-08-20T10:36:37.496Z,25.80
2018-08-20T10:39:08.778Z,25.90
2018-08-20T10:41:38.192Z,25.70
2018-08-20T10:44:07.544Z,25.90
2018-08-20T10:46:36.764Z,26.00
2018-08-20T10:49:06.188Z,25.80
2018-08-20T10:51:35.593Z,25.60
2018-08-20T10:54:04.960Z,25.80
2018-08-20T10:56:34.333Z,25.70
2018-08-20T10:59:06.781Z,25.90
2018-08-20T11:01:35.956Z,26.30
2018-08-20T11:04:05.336Z,26.30
2018-08-20T11:06:35.437Z,26.30
2018-08-20T11:09:07.042Z,26.40
2018-08-20T11:11:36.479Z,26.50
2018-08-20T11:14:06.811Z,26.60
2018-08-20T11:16:36.163Z,26.70
2018-08-20T11:19:06.095Z,26.60
2018-08-20T11:21:36.282Z,26.80
2018-08-20T11:24:05.348Z,27.00
2018-08-20T11:26:34.471Z,27.00
2018-08-20T11:29:03.799Z,26.80
2018-08-20T11:31:40.912Z,26.90
2018-08-20T11:34:10.179Z,26.80
2018-08-20T11:36:39.632Z,26.70
2018-08-20T11:39:09.066Z,26.80
2018-08-20T11:41:38.476Z,27.00
2018-08-20T11:44:08.537Z,27.10
2018-08-20T11:46:38.146Z,26.80
2018-08-20T11:49:08.492Z,26.90
2018-08-20T11:51:37.913Z,27.20
2018-08-20T11:54:07.803Z,27.20
2018-08-20T11:56:37.175Z,27.00
2018-08-20T11:59:06.278Z,27.20
2018-08-20T12:01:36.172Z,27.30
2018-08-20T12:04:05.825Z,27.40
2018-08-20T12:06:34.919Z,27.20
2018-08-20T12:09:05.413Z,27.10
2018-08-20T12:11:34.595Z,27.10
2018-08-20T12:14:04.071Z,26.90
2018-08-20T12:16:33.445Z,27.00
2018-08-20T12:19:02.822Z,27.00
2018-08-20T12:21:32.122Z,27.00
2018-08-20T12:24:02.318Z,26.70
2018-08-20T12:26:31.702Z,26.60
2018-08-20T12:29:01.055Z,26.60
2018-08-20T12:31:30.421Z,26.60
2018-08-20T12:33:59.716Z,26.50
2018-08-20T12:36:29.202Z,26.50
2018-08-20T12:38:58.554Z,26.70
2018-08-20T12:41:27.992Z,26.70
2018-08-20T12:43:57.397Z,26.50
2018-08-20T12:46:26.747Z,26.50
2018-08-20T12:48:56.036Z,26.30
2018-08-20T12:51:25.616Z,26.40
2018-08-20T12:53:55.045Z,26.30
2018-08-20T12:56:24.414Z,26.40
2018-08-20T12:58:54.168Z,26.40
2018-08-20T13:01:23.529Z,26.40
2018-08-20T13:03:53.111Z,26.40
2018-08-20T13:06:22.488Z,26.30
2018-08-20T13:08:51.936Z,26.20
2018-08-20T13:11:21.264Z,26.40
2018-08-20T13:13:50.408Z,26.30
2018-08-20T13:16:19.969Z,26.30
2018-08-20T13:18:49.337Z,26.40
2018-08-20T13:21:18.792Z,26.50
2018-08-20T13:23:48.123Z,26.40
2018-08-20T13:26:17.592Z,26.20
2018-08-20T13:28:46.900Z,26.40
2018-08-20T13:31:26.245Z,26.40
2018-08-20T13:33:58.808Z,26.50
2018-08-20T13:36:28.212Z,26.60
2018-08-20T13:38:57.392Z,26.60
2018-08-20T13:41:26.911Z,26.70
2018-08-20T13:43:56.303Z,26.70
2018-08-20T13:46:25.771Z,26.80
2018-08-20T13:48:54.912Z,26.60
2018-08-20T13:51:24.036Z,26.80
2018-08-20T13:53:54.811Z,26.80
2018-08-20T13:56:25.576Z,26.90
2018-08-20T13:58:55.758Z,26.70
2018-08-20T14:01:25.556Z,26.70
2018-08-20T14:03:54.969Z,26.80
2018-08-20T14:06:24.400Z,26.70
2018-08-20T14:08:53.939Z,26.80
2018-08-20T14:11:27.388Z,26.80
2018-08-20T14:14:00.025Z,26.90
2018-08-20T14:16:29.608Z,26.80
2018-08-20T14:18:58.820Z,26.70
2018-08-20T14:21:43.019Z,26.90
2018-08-20T14:24:13.338Z,26.80
2018-08-20T14:26:43.416Z,26.80
2018-08-20T14:29:13.376Z,26.90
2018-08-20T14:31:42.927Z,26.60
2018-08-20T14:34:12.275Z,26.80
2018-08-20T14:36:41.736Z,26.80
2018-08-20T14:39:11.079Z,26.40
2018-08-20T14:41:40.913Z,26.50
2018-08-20T14:44:10.032Z,26.40
2018-08-20T14:46:39.059Z,26.20
2018-08-20T14:49:08.392Z,26.00
2018-08-20T14:51:38.541Z,25.90
2018-08-20T14:54:08.317Z,25.80
2018-08-20T14:56:37.729Z,25.70
2018-08-20T14:59:07.119Z,25.80
2018-08-20T15:01:36.562Z,25.90
2018-08-20T15:04:05.734Z,25.70
2018-08-20T15:06:40.028Z,25.70
2018-08-20T15:09:09.538Z,25.70
2018-08-20T15:11:38.803Z,25.60
2018-08-20T15:14:08.201Z,25.30
2018-08-20T15:16:37.295Z,25.40
2018-08-20T15:19:06.635Z,25.30
2018-08-20T15:21:35.991Z,25.50
2018-08-20T15:24:05.361Z,25.50
2018-08-20T15:26:34.659Z,25.60
2018-08-20T15:29:04.089Z,25.40
2018-08-20T15:31:33.571Z,25.70
2018-08-20T15:34:02.949Z,25.70
2018-08-20T15:36:32.334Z,25.70
2018-08-20T15:39:01.738Z,25.60
2018-08-20T15:41:30.994Z,25.60
2018-08-20T15:44:00.329Z,25.60
2018-08-20T15:46:29.480Z,25.60
2018-08-20T15:48:58.931Z,25.40
2018-08-20T15:51:28.296Z,25.30
2018-08-20T15:53:57.886Z,25.50
2018-08-20T15:56:27.170Z,25.60
2018-08-20T15:58:57.213Z,25.50
2018-08-20T16:01:26.531Z,25.50
2018-08-20T16:04:00.883Z,25.40
2018-08-20T16:06:30.237Z,25.40
2018-08-20T16:08:59.665Z,25.40
2018-08-20T16:11:29.132Z,25.40
2018-08-20T16:13:58.540Z,25.20
2018-08-20T16:16:27.848Z,25.20
2018-08-20T16:18:56.990Z,25.20
2018-08-20T16:21:26.308Z,25.10
2018-08-20T16:24:58.826Z,25.20
2018-08-20T16:27:28.387Z,25.10
2018-08-20T16:29:57.776Z,25.20
2018-08-20T16:32:26.851Z,25.20
2018-08-20T16:34:55.867Z,25.10
2018-08-20T16:37:24.807Z,25.20
2018-08-20T16:39:54.909Z,25.30
2018-08-20T16:42:23.930Z,25.20
2018-08-20T16:44:54.057Z,25.20
2018-08-20T16:47:23.354Z,25.30
2018-08-20T16:49:52.821Z,25.30
2018-08-20T16:52:22.193Z,25.10
2018-08-20T16:54:56.603Z,25.10
2018-08-20T16:57:26.005Z,24.90
2018-08-20T17:00:06.889Z,25.00
2018-08-20T17:02:42.157Z,24.90
2018-08-20T17:05:13.688Z,25.00
2018-08-20T17:07:42.790Z,25.10
2018-08-20T17:10:13.171Z,24.90
2018-08-20T17:12:42.917Z,25.00
2018-08-20T17:15:14.425Z,25.00
2018-08-20T17:17:43.729Z,24.90
2018-08-20T17:20:13.838Z,24.80
2018-08-20T17:22:43.519Z,24.80
2018-08-20T17:25:13.744Z,24.90
2018-08-20T17:27:49.891Z,24.80
2018-08-20T17:30:19.250Z,24.60
2018-08-20T17:32:48.274Z,24.70
2018-08-20T17:35:17.363Z,24.60
2018-08-20T17:37:47.391Z,24.70
2018-08-20T17:40:16.782Z,24.70
2018-08-20T17:42:45.946Z,24.70
2018-08-20T17:45:15.243Z,24.50
2018-08-20T17:47:44.678Z,24.50
2018-08-20T17:50:31.174Z,24.60
2018-08-20T17:53:01.409Z,24.60
2018-08-20T17:55:30.999Z,24.50
2018-08-20T17:58:00.536Z,24.50
2018-08-20T18:00:44.893Z,24.40
2018-08-20T18:03:21.025Z,24.40
2018-08-20T18:05:53.636Z,24.40
2018-08-20T18:08:24.173Z,24.40
2018-08-20T18:10:53.273Z,24.30
2018-08-20T18:13:52.130Z,24.30
2018-08-20T18:16:22.755Z,24.40
2018-08-20T18:18:53.195Z,24.30
2018-08-20T18:21:22.603Z,24.30
2018-08-20T18:23:51.694Z,24.20
2018-08-20T18:26:24.272Z,24.30
2018-08-20T18:28:54.516Z,24.30
2018-08-20T18:31:28.174Z,24.30
2018-08-20T18:33:57.511Z,24.30
2018-08-20T18:36:30.739Z,24.20
2018-08-20T18:39:11.143Z,24.20
2018-08-20T18:41:57.633Z,24.10
2018-08-20T18:44:27.124Z,24.10
2018-08-20T18:46:56.167Z,24.20
2018-08-20T18:49:25.532Z,24.10
2018-08-20T18:52:00.858Z,24.20
2018-08-20T18:54:34.710Z,24.10
2018-08-20T18:57:03.867Z,24.10
2018-08-20T18:59:34.536Z,24.10
2018-08-20T19:02:03.823Z,23.90
2018-08-20T19:04:39.460Z,24.00
2018-08-20T19:07:10.015Z,24.00
2018-08-20T19:09:40.380Z,24.00
2018-08-20T19:12:09.767Z,24.00
2018-08-20T19:14:39.217Z,24.00
2018-08-20T19:17:40.279Z,24.00
2018-08-20T19:20:09.565Z,23.80
2018-08-20T19:22:38.915Z,23.90
2018-08-20T19:25:08.250Z,23.90
2018-08-20T19:27:41.408Z,23.80
2018-08-20T19:30:18.084Z,23.80
2018-08-20T19:32:47.782Z,23.70
2018-08-20T19:35:17.004Z,23.70
2018-08-20T19:37:46.440Z,23.70
2018-08-20T19:40:15.878Z,23.60
2018-08-20T19:42:45.280Z,23.70
2018-08-20T19:45:14.921Z,23.60
2018-08-20T19:47:52.192Z,23.70
2018-08-20T19:50:25.557Z,23.60
2018-08-20T19:52:54.949Z,23.60
2018-08-20T19:55:24.296Z,23.50
2018-08-20T19:57:53.763Z,23.60
2018-08-20T20:00:27.837Z,23.50
2018-08-20T20:02:57.301Z,23.60
2018-08-20T20:05:26.857Z,23.60
2018-08-20T20:08:02.519Z,23.50
2018-08-20T20:10:32.174Z,23.60
2018-08-20T20:13:06.971Z,23.50
2018-08-20T20:15:40.971Z,23.50
2018-08-20T20:18:10.503Z,23.60
2018-08-20T20:20:40.348Z,23.50
2018-08-20T20:23:09.883Z,23.60
2018-08-20T20:25:39.134Z,23.50
2018-08-20T20:28:08.281Z,23.60
2018-08-20T20:30:37.841Z,23.50
2018-08-20T20:33:07.067Z,23.40
2018-08-20T20:35:41.047Z,23.40
2018-08-20T20:38:10.590Z,23.40
2018-08-20T20:40:39.860Z,23.40
2018-08-20T20:43:09.173Z,23.40
2018-08-20T20:45:39.284Z,23.40
2018-08-20T20:48:08.619Z,23.40
2018-08-20T20:50:38.121Z,23.40
2018-08-20T20:53:07.553Z,23.40
2018-08-20T20:55:36.954Z,23.30
2018-08-20T20:58:06.322Z,23.30
2018-08-20T21:00:35.675Z,23.20
2018-08-20T21:03:09.035Z,23.30
2018-08-20T21:05:38.444Z,23.20
2018-08-20T21:08:07.619Z,23.20
2018-08-20T21:10:42.178Z,23.20
2018-08-20T21:13:11.923Z,23.30
2018-08-20T21:15:41.768Z,23.20
2018-08-20T21:18:11.120Z,23.10
2018-08-20T21:20:40.442Z,23.20
2018-08-20T21:23:09.565Z,23.20
2018-08-20T21:25:39.015Z,23.20
2018-08-20T21:28:08.229Z,23.20
2018-08-20T21:30:42.505Z,23.30
2018-08-20T21:33:11.991Z,23.20
2018-08-20T21:35:41.449Z,23.20
2018-08-20T21:38:10.829Z,23.20
2018-08-20T21:40:40.867Z,23.00
2018-08-20T21:43:11.061Z,23.00
2018-08-20T21:45:40.151Z,23.10
2018-08-20T21:48:10.534Z,23.10
2018-08-20T21:50:39.981Z,23.10
2018-08-20T21:53:10.132Z,22.90
2018-08-20T21:55:41.035Z,22.90
2018-08-20T21:58:10.525Z,23.00
2018-08-20T22:00:40.128Z,23.00
2018-08-20T22:03:11.788Z,23.00
2018-08-20T22:05:41.003Z,23.10
2018-08-20T22:08:10.522Z,23.00
2018-08-20T22:10:40.009Z,23.00
2018-08-20T22:13:09.304Z,23.00
2018-08-20T22:15:38.612Z,23.00
2018-08-20T22:18:07.760Z,22.90
2018-08-20T22:20:37.118Z,22.90
2018-08-20T22:23:24.674Z,22.90
2018-08-20T22:25:37.125Z,22.90
2018-08-20T22:28:06.356Z,22.80
2018-08-20T22:30:37.464Z,22.90
2018-08-20T22:33:06.768Z,22.90
2018-08-20T22:35:37.102Z,22.90
2018-08-20T22:38:06.108Z,22.90
2018-08-20T22:40:35.481Z,22.80
2018-08-20T22:43:05.474Z,22.80
2018-08-20T22:45:34.935Z,22.80
2018-08-20T22:48:04.392Z,22.80
2018-08-20T22:50:33.729Z,22.70
2018-08-20T22:53:03.167Z,22.70
2018-08-20T22:55:32.227Z,22.80
2018-08-20T22:58:10.375Z,22.70
2018-08-20T23:00:40.365Z,22.70
2018-08-20T23:03:09.690Z,22.70
2018-08-20T23:05:39.140Z,22.60
2018-08-20T23:08:13.916Z,22.60
2018-08-20T23:10:43.987Z,22.60
2018-08-20T23:13:13.363Z,22.60
2018-08-20T23:15:42.710Z,22.50
2018-08-20T23:18:12.100Z,22.50
2018-08-20T23:20:41.450Z,22.50
2018-08-20T23:23:10.708Z,22.50
2018-08-20T23:25:40.142Z,22.50
2018-08-20T23:28:09.460Z,22.50
2018-08-20T23:30:40.773Z,22.40
2018-08-20T23:33:10.597Z,22.50
2018-08-20T23:35:39.978Z,22.40
2018-08-20T23:38:09.060Z,22.40
2018-08-20T23:40:38.212Z,22.50
2018-08-20T23:43:07.770Z,22.50
2018-08-20T23:45:37.163Z,22.50
2018-08-20T23:48:06.535Z,22.40
2018-08-20T23:50:36.328Z,22.40
2018-08-20T23:53:06.279Z,22.50
2018-08-20T23:55:35.362Z,22.50
2018-08-20T23:58:04.724Z,22.40
